createdAt,value
2018-09-06T00:02:43.537Z,7.43
2018-09-06T00:09:12.767Z,8.63
2018-09-06T00:14:18.476Z,9.30
2018-09-06T00:19:25.443Z,7.80
2018-09-06T00:30:20.353Z,8.87
2018-09-06T00:35:33.074Z,8.00
2018-09-06T00:46:07.628Z,11.07
2018-09-06T00:56:58.404Z,10.13
2018-09-06T02:05:49.521Z,9.83
2018-09-06T02:10:54.955Z,9.07
2018-09-06T02:16:01.274Z,7.80
2018-09-06T02:21:07.496Z,10.77
2018-09-06T02:26:13.336Z,7.77
2018-09-06T02:31:18.541Z,9.33
2018-09-06T02:36:23.346Z,9.60
2018-09-06T02:41:27.991Z,8.93
2018-09-06T02:46:33.110Z,8.53
2018-09-06T02:51:38.158Z,9.60
2018-09-06T02:56:42.570Z,8.87
2018-09-06T03:01:47.526Z,8.63
2018-09-06T03:06:53.096Z,9.13
2018-09-06T03:12:02.416Z,9.73
2018-09-06T03:17:08.136Z,10.80
2018-09-06T03:22:14.220Z,7.87
2018-09-06T03:33:03.388Z,8.77
2018-09-06T03:38:08.572Z,8.33
2018-09-06T03:43:13.988Z,9.40
2018-09-06T03:48:30.518Z,8.90
2018-09-06T03:53:35.816Z,8.77
2018-09-06T04:03:54.301Z,9.43
2018-09-06T04:08:59.225Z,9.50
2018-09-06T04:14:03.662Z,8.93
2018-09-06T04:19:08.647Z,10.40
2018-09-06T04:24:13.375Z,9.63
2018-09-06T04:29:17.899Z,13.63
2018-09-06T04:34:22.621Z,9.93
2018-09-06T04:39:27.307Z,12.33
2018-09-06T04:44:31.916Z,10.83
2018-09-06T04:49:36.376Z,9.10
2018-09-06T04:54:40.872Z,10.03
2018-09-06T04:59:45.264Z,12.60
2018-09-06T05:04:49.926Z,9.37
2018-09-06T05:09:54.433Z,8.77
2018-09-06T05:14:58.888Z,8.13
2018-09-06T05:20:03.900Z,10.90
2018-09-06T05:25:08.607Z,14.00
2018-09-06T05:30:13.030Z,12.17
2018-09-06T05:35:17.558Z,13.67
2018-09-06T05:40:22.144Z,12.60
2018-09-06T05:45:26.713Z,10.33
2018-09-06T05:50:31.784Z,16.07
2018-09-06T05:55:36.319Z,12.03
2018-09-06T06:00:48.010Z,12.80
2018-09-06T06:05:52.425Z,12.93
2018-09-06T06:10:57.028Z,12.10
2018-09-06T06:16:01.511Z,13.27
2018-09-06T06:21:06.151Z,13.60
2018-09-06T06:26:10.747Z,11.00
2018-09-06T06:31:15.072Z,13.27
2018-09-06T06:36:19.647Z,12.87
2018-09-06T06:41:24.113Z,53.67
2018-09-06T06:46:29.191Z,18.13
2018-09-06T06:51:34.069Z,19.37
2018-09-06T06:56:38.559Z,21.27
2018-09-06T07:01:43.113Z,22.23
2018-09-06T07:06:47.913Z,27.57
2018-09-06T07:11:53.329Z,22.60
2018-09-06T07:16:57.800Z,21.93
2018-09-06T07:22:02.216Z,22.67
2018-09-06T07:27:06.737Z,20.73
2018-09-06T07:32:11.404Z,26.00
2018-09-06T07:37:15.842Z,26.57
2018-09-06T07:42:20.315Z,25.80
2018-09-06T07:47:24.781Z,22.50
2018-09-06T07:52:29.191Z,25.93
2018-09-06T07:57:33.753Z,26.87
2018-09-06T08:02:38.760Z,24.07
2018-09-06T08:07:43.199Z,25.43
2018-09-06T08:12:47.689Z,23.47
2018-09-06T08:17:52.413Z,24.83
2018-09-06T08:22:56.939Z,25.27
2018-09-06T08:33:19.128Z,22.00
2018-09-06T08:38:24.093Z,20.27
2018-09-06T08:43:29.858Z,22.63
2018-09-06T08:48:34.342Z,21.67
2018-09-06T08:53:38.990Z,18.07
2018-09-06T08:58:43.835Z,23.57
2018-09-06T09:03:48.399Z,27.50
2018-09-06T09:08:53.384Z,19.53
2018-09-06T09:13:58.158Z,19.83
2018-09-06T09:19:03.677Z,19.43
2018-09-06T09:24:08.207Z,25.27
2018-09-06T09:34:30.123Z,20.37
2018-09-06T09:39:38.695Z,22.47
2018-09-06T09:44:43.782Z,19.97
2018-09-06T09:49:51.215Z,20.40
2018-09-06T09:54:56.637Z,26.33
2018-09-06T10:00:01.896Z,20.53
2018-09-06T10:05:11.593Z,26.33
2018-09-06T10:10:16.407Z,20.67
2018-09-06T10:15:22.188Z,23.17
2018-09-06T10:20:26.723Z,20.63
2018-09-06T10:25:31.362Z,24.70
2018-09-06T10:30:36.047Z,24.00
2018-09-06T10:35:40.574Z,26.73
2018-09-06T10:40:45.125Z,26.50
2018-09-06T10:45:49.629Z,23.83
2018-09-06T10:50:54.582Z,25.70
2018-09-06T10:55:59.253Z,23.00
2018-09-06T11:01:24.402Z,29.53
2018-09-06T11:06:29.870Z,23.23
2018-09-06T11:11:34.916Z,28.97
2018-09-06T11:16:39.907Z,24.00
2018-09-06T11:21:44.738Z,25.83
2018-09-06T11:26:49.288Z,23.13
2018-09-06T11:31:53.989Z,28.23
2018-09-06T11:36:59.326Z,25.50
2018-09-06T11:42:04.382Z,27.87
2018-09-06T11:47:10.553Z,21.10
2018-09-06T11:52:15.212Z,24.03
2018-09-06T11:57:20.539Z,23.90
2018-09-06T12:02:25.600Z,25.27
2018-09-06T12:07:30.364Z,24.93
2018-09-06T12:12:35.229Z,22.80
2018-09-06T12:17:40.076Z,24.43
2018-09-06T12:22:44.882Z,26.53
2018-09-06T12:27:49.631Z,22.67
2018-09-06T12:32:54.229Z,28.40
2018-09-06T12:37:58.975Z,30.47
2018-09-06T12:43:03.822Z,25.40
2018-09-06T12:48:08.525Z,30.50
2018-09-06T12:53:13.118Z,27.53
2018-09-06T12:58:18.179Z,24.70
2018-09-06T13:03:23.347Z,27.80
2018-09-06T13:08:27.905Z,32.70
2018-09-06T13:13:32.530Z,30.63
2018-09-06T13:18:37.305Z,34.57
2018-09-06T13:23:41.967Z,45.67
2018-09-06T13:28:46.631Z,51.40
2018-09-06T13:33:51.330Z,70.30
2018-09-06T13:38:56.136Z,51.27
2018-09-06T13:44:01.480Z,51.30
2018-09-06T13:49:05.940Z,50.23
2018-09-06T13:54:10.410Z,43.37
2018-09-06T13:59:15.792Z,58.67
2018-09-06T14:04:23.342Z,74.67
2018-09-06T14:09:28.124Z,56.23
2018-09-06T14:14:33.532Z,61.13
2018-09-06T14:19:38.061Z,52.40
2018-09-06T14:24:43.017Z,56.40
2018-09-06T14:29:48.287Z,58.17
2018-09-06T14:34:52.756Z,61.03
2018-09-06T14:39:57.635Z,66.27
2018-09-06T14:45:02.602Z,65.23
2018-09-06T14:50:07.258Z,64.83
2018-09-06T14:55:11.910Z,69.80
2018-09-06T15:00:16.680Z,55.47
2018-09-06T15:05:22.323Z,39.43
2018-09-06T15:10:26.863Z,31.50
2018-09-06T15:15:31.900Z,18.67
2018-09-06T15:20:36.340Z,18.63
2018-09-06T15:25:40.837Z,24.10
2018-09-06T15:30:45.851Z,26.27
2018-09-06T15:35:50.507Z,28.50
2018-09-06T15:40:56.213Z,26.20
2018-09-06T15:46:00.919Z,28.43
2018-09-06T15:51:05.544Z,27.47
2018-09-06T15:56:10.007Z,29.27
2018-09-06T16:01:14.434Z,35.83
2018-09-06T16:06:19.271Z,30.20
2018-09-06T16:11:25.184Z,31.83
2018-09-06T16:16:30.071Z,31.23
2018-09-06T16:21:34.511Z,31.93
2018-09-06T16:26:39.281Z,35.53
2018-09-06T16:31:43.860Z,37.93
2018-09-06T16:36:48.475Z,34.90
2018-09-06T16:41:52.975Z,38.60
2018-09-06T16:46:57.662Z,37.97
2018-09-06T16:52:02.200Z,28.77
2018-09-06T16:57:06.804Z,28.03
2018-09-06T17:02:11.489Z,28.77
2018-09-06T17:07:16.254Z,28.13
2018-09-06T17:12:20.799Z,27.03
2018-09-06T17:17:25.285Z,27.10
2018-09-06T17:22:30.100Z,30.50
2018-09-06T17:27:34.554Z,23.47
2018-09-06T17:32:39.059Z,23.50
2018-09-06T17:37:44.046Z,23.67
2018-09-06T17:42:48.645Z,22.27
2018-09-06T17:47:53.152Z,22.07
2018-09-06T17:52:57.667Z,20.53
2018-09-06T17:58:02.109Z,25.70
2018-09-06T18:03:06.904Z,27.17
2018-09-06T18:08:11.433Z,29.13
2018-09-06T18:13:15.862Z,32.73
2018-09-06T18:18:20.684Z,30.57
2018-09-06T18:23:25.428Z,36.67
2018-09-06T18:34:08.237Z,36.60
2018-09-06T18:44:50.599Z,38.67
2018-09-06T18:50:05.078Z,43.00
2018-09-06T18:55:14.287Z,45.40
2018-09-06T19:00:22.791Z,47.20
2018-09-06T19:38:36.994Z,47.57
2018-09-06T19:43:44.109Z,53.73
2018-09-06T19:48:59.322Z,48.83
2018-09-06T19:54:22.397Z,49.93
2018-09-06T20:10:24.241Z,66.80
2018-09-06T20:15:33.087Z,68.50
2018-09-06T20:41:58.611Z,96.47
2018-09-06T20:49:18.918Z,111.70
2018-09-06T20:54:25.139Z,117.50
2018-09-06T20:59:35.486Z,109.97
2018-09-06T21:04:51.903Z,120.50
2018-09-06T21:16:15.567Z,112.73
2018-09-06T21:21:21.520Z,104.93
2018-09-06T21:32:30.312Z,97.50
2018-09-06T22:00:02.371Z,197.50
2018-09-06T22:06:38.872Z,201.27
2018-09-06T22:18:48.123Z,201.37
2018-09-06T22:40:25.928Z,199.43
2018-09-06T22:45:35.714Z,194.33
2018-09-06T23:01:39.614Z,210.10
2018-09-06T23:12:08.263Z,116.03
2018-09-06T23:17:14.241Z,80.20
2018-09-06T23:22:26.668Z,84.63
2018-09-06T23:27:32.239Z,77.37
2018-09-06T23:32:37.601Z,76.50
2018-09-06T23:38:03.138Z,73.17
2018-09-06T23:53:34.898Z,56.70
2018-09-06T23:58:44.235Z,61.53
